Time;durP1;ratioP1;P1;durP2;ratioP2;P2;SDS_P1;SDS_P2;PMS_P1;PMS_P2;Temp;Humidity;BMP_temperature;BMP_pressure;BME280_temperature;BME280_humidity;BME280_pressure;Samples;Min_cycle;Max_cycle;Signal;HPM_P1;HPM_P2
2022/05/02 00:00:14;;;;;;;9.68;6.85;;;4.40;99.90;;;;;;5115033;28;20023;-78
2022/05/02 00:02:40;;;;;;;11.90;7.18;;;4.30;99.90;;;;;;5115072;28;20024;-78
2022/05/02 00:05:06;;;;;;;13.35;7.05;;;4.30;99.90;;;;;;5110950;28;20019;-78
2022/05/02 00:07:32;;;;;;;9.77;7.28;;;4.30;99.90;;;;;;5113518;28;20028;-78
2022/05/02 00:09:58;;;;;;;11.43;6.93;;;4.30;99.90;;;;;;5113678;28;20045;-78
2022/05/02 00:12:24;;;;;;;10.75;6.60;;;4.20;99.90;;;;;;5114687;28;20517;-78
2022/05/02 00:14:50;;;;;;;10.38;7.60;;;4.20;99.90;;;;;;5113594;28;20041;-78
2022/05/02 00:17:16;;;;;;;9.05;6.60;;;4.20;99.90;;;;;;5114732;28;20024;-78
2022/05/02 00:19:42;;;;;;;9.63;6.55;;;4.20;99.90;;;;;;5113050;28;20020;-78
2022/05/02 00:22:08;;;;;;;12.85;7.05;;;4.10;99.90;;;;;;5113475;28;20081;-78
2022/05/02 00:24:34;;;;;;;10.43;6.40;;;4.10;99.90;;;;;;5114688;28;20024;-78
2022/05/02 00:26:59;;;;;;;9.65;6.70;;;4.10;99.90;;;;;;5113069;28;20048;-78
2022/05/02 00:29:25;;;;;;;11.75;6.63;;;4.10;99.90;;;;;;5110522;28;20028;-78
2022/05/02 00:31:51;;;;;;;11.20;7.00;;;4.00;99.90;;;;;;5114254;28;20065;-78
2022/05/02 00:34:17;;;;;;;8.52;6.60;;;4.00;99.90;;;;;;5114355;28;20466;-78
2022/05/02 00:36:43;;;;;;;9.13;6.57;;;4.00;99.90;;;;;;5114007;28;20030;-78
2022/05/02 00:39:09;;;;;;;12.10;7.50;;;3.90;99.90;;;;;;5114800;28;20436;-78
2022/05/02 00:41:34;;;;;;;8.60;6.88;;;3.90;99.90;;;;;;5114893;28;20032;-78
2022/05/02 00:44:00;;;;;;;14.30;6.82;;;3.90;99.90;;;;;;5114538;28;20031;-78
2022/05/02 00:46:26;;;;;;;19.90;8.52;;;3.80;99.90;;;;;;5114694;28;20103;-78
2022/05/02 00:48:53;;;;;;;10.05;7.72;;;3.90;99.90;;;;;;5114557;28;20031;-78
2022/05/02 00:51:20;;;;;;;13.43;7.68;;;3.80;99.90;;;;;;5114830;28;20012;-78
2022/05/02 00:53:49;;;;;;;10.48;7.68;;;3.80;99.90;;;;;;5114538;28;20031;-78
2022/05/02 00:56:20;;;;;;;10.85;7.97;;;3.80;99.90;;;;;;5113267;28;20153;-78
2022/05/02 00:58:48;;;;;;;10.82;7.35;;;3.80;99.90;;;;;;5114478;28;20048;-78
2022/05/02 01:01:14;;;;;;;9.68;6.50;;;3.80;99.90;;;;;;5113242;28;20024;-78
2022/05/02 01:03:40;;;;;;;9.38;7.18;;;3.70;99.90;;;;;;5113226;28;20385;-78
2022/05/02 01:08:52;;;;;;;11.48;7.80;;;3.70;99.90;;;;;;5114845;28;20038;-78
2022/05/02 01:11:18;;;;;;;10.07;7.53;;;3.70;99.90;;;;;;5113034;28;20049;-78
2022/05/02 01:13:46;;;;;;;13.30;8.95;;;3.70;99.90;;;;;;5113037;28;20363;-78
2022/05/02 01:16:23;;;;;;;13.30;8.00;;;3.60;99.90;;;;;;5114521;28;20065;-78
2022/05/02 01:18:52;;;;;;;13.13;8.40;;;3.60;99.90;;;;;;5113064;28;20031;-78
2022/05/02 01:21:25;;;;;;;15.30;9.27;;;3.60;99.90;;;;;;5113016;28;20034;-78
2022/05/02 01:23:53;;;;;;;14.82;9.02;;;3.60;99.90;;;;;;5114137;28;20382;-78
2022/05/02 01:26:20;;;;;;;13.25;8.73;;;3.60;99.90;;;;;;5114126;28;20363;-78
2022/05/02 01:28:51;;;;;;;13.07;9.48;;;3.50;99.90;;;;;;5113856;28;20051;-78
2022/05/02 01:31:20;;;;;;;14.07;9.40;;;3.50;99.90;;;;;;5112851;28;20020;-78
2022/05/02 01:33:47;;;;;;;15.43;10.55;;;3.50;99.90;;;;;;5114152;28;20546;-78
2022/05/02 01:36:13;;;;;;;15.02;10.00;;;3.50;99.90;;;;;;5114013;28;20054;-78
2022/05/02 01:38:39;;;;;;;16.50;10.30;;;3.50;99.90;;;;;;5113980;28;20078;-78
2022/05/02 01:41:06;;;;;;;16.88;9.50;;;3.40;99.90;;;;;;5112711;28;20478;-78
2022/05/02 01:43:32;;;;;;;16.85;9.68;;;3.40;99.90;;;;;;5112734;28;20110;-78
2022/05/02 01:46:03;;;;;;;14.68;9.48;;;3.40;99.90;;;;;;5112775;28;20066;-78
2022/05/02 01:48:28;;;;;;;16.23;10.13;;;3.30;99.90;;;;;;5113074;28;20087;-78
2022/05/02 01:50:54;;;;;;;13.52;9.00;;;3.30;99.90;;;;;;5118190;28;20023;-78
2022/05/02 01:53:20;;;;;;;13.90;9.27;;;3.30;99.90;;;;;;5116805;28;20023;-78
2022/05/02 01:55:46;;;;;;;16.83;9.18;;;3.30;99.90;;;;;;5118041;28;20019;-78
2022/05/02 01:58:12;;;;;;;19.10;9.93;;;3.30;99.90;;;;;;5118008;28;20055;-78
2022/05/02 02:00:37;;;;;;;15.80;9.02;;;3.30;99.90;;;;;;5118170;28;20393;-78
2022/05/02 02:03:03;;;;;;;16.45;9.65;;;3.30;99.90;;;;;;5118137;28;20458;-78
2022/05/02 02:08:14;;;;;;;19.20;10.63;;;3.20;99.90;;;;;;5118121;28;20484;-78
2022/05/02 02:10:39;;;;;;;16.70;10.15;;;3.20;99.90;;;;;;5117754;28;20016;-78
2022/05/02 02:13:05;;;;;;;14.68;10.13;;;3.20;99.90;;;;;;5117644;28;20435;-78
2022/05/02 02:15:31;;;;;;;17.05;10.07;;;3.20;99.90;;;;;;5116352;28;20016;-78
2022/05/02 02:17:57;;;;;;;17.67;9.82;;;3.20;99.90;;;;;;5116298;28;20524;-78
2022/05/02 02:20:22;;;;;;;16.90;10.15;;;3.20;99.90;;;;;;5117822;28;20366;-78
2022/05/02 02:22:48;;;;;;;16.40;10.18;;;3.20;99.90;;;;;;5116255;28;20027;-78
2022/05/02 02:25:14;;;;;;;14.55;9.13;;;3.20;99.90;;;;;;5116197;28;20042;-78
2022/05/02 02:27:40;;;;;;;15.82;9.68;;;3.20;99.90;;;;;;5117126;28;20104;-78
2022/05/02 02:30:06;;;;;;;15.05;10.02;;;3.20;99.90;;;;;;5117371;28;20363;-78
2022/05/02 02:32:32;;;;;;;15.27;9.75;;;3.20;99.90;;;;;;5117577;28;20023;-78
2022/05/02 02:34:58;;;;;;;18.67;10.85;;;3.20;99.90;;;;;;5115916;28;20027;-78
2022/05/02 02:37:24;;;;;;;17.77;10.43;;;3.10;99.90;;;;;;5117186;28;20032;-78
2022/05/02 02:39:50;;;;;;;16.70;10.00;;;3.10;99.90;;;;;;5117110;28;20423;-78
2022/05/02 02:42:16;;;;;;;17.50;9.85;;;3.10;99.90;;;;;;5117494;28;20468;-78
2022/05/02 02:44:42;;;;;;;17.15;10.82;;;3.10;99.90;;;;;;5117066;28;20044;-78
2022/05/02 02:47:07;;;;;;;26.10;13.82;;;3.20;99.90;;;;;;5115650;28;20069;-78
2022/05/02 02:49:33;;;;;;;27.10;13.95;;;3.10;99.90;;;;;;5117255;28;20412;-78
2022/05/02 02:51:58;;;;;;;29.23;16.27;;;3.20;99.90;;;;;;5115667;28;20458;-78
2022/05/02 02:54:24;;;;;;;27.75;16.20;;;3.20;99.90;;;;;;5116848;28;20035;-78
2022/05/02 02:56:50;;;;;;;32.00;17.88;;;3.20;99.90;;;;;;5115550;28;20043;-78
2022/05/02 02:59:16;;;;;;;30.48;18.13;;;3.30;99.90;;;;;;5115052;28;20382;-78
2022/05/02 03:01:41;;;;;;;31.60;18.55;;;3.30;99.90;;;;;;5116746;28;20077;-78
2022/05/02 03:06:52;;;;;;;33.08;18.60;;;3.30;99.90;;;;;;5117160;28;20378;-78
2022/05/02 03:09:18;;;;;;;29.05;18.77;;;3.40;99.90;;;;;;5115399;28;20108;-78
2022/05/02 03:11:44;;;;;;;31.17;18.25;;;3.40;99.90;;;;;;5115303;28;20458;-78
2022/05/02 03:14:10;;;;;;;32.63;18.40;;;3.50;99.90;;;;;;5115199;28;20085;-78
2022/05/02 03:16:36;;;;;;;32.42;17.38;;;3.50;99.90;;;;;;5116080;28;20019;-78
2022/05/02 03:19:02;;;;;;;29.88;17.30;;;3.60;99.90;;;;;;5116427;28;20378;-78
2022/05/02 03:21:27;;;;;;;33.25;16.63;;;3.60;99.90;;;;;;5115042;28;20019;-78
2022/05/02 03:23:53;;;;;;;24.88;15.70;;;3.70;99.90;;;;;;5116359;28;20489;-78
2022/05/02 03:26:19;;;;;;;27.83;15.93;;;3.70;99.90;;;;;;5116158;28;20023;-78
2022/05/02 03:28:45;;;;;;;31.55;17.10;;;3.80;99.90;;;;;;5115931;28;20070;-78
2022/05/02 03:31:10;;;;;;;35.40;19.23;;;3.90;99.90;;;;;;5116357;28;20472;-78
2022/05/02 03:33:36;;;;;;;46.42;21.65;;;3.90;99.90;;;;;;5114627;28;20115;-78
2022/05/02 03:36:02;;;;;;;47.13;23.65;;;4.00;99.90;;;;;;5114871;28;20028;-78
2022/05/02 03:38:27;;;;;;;47.53;22.35;;;4.10;99.90;;;;;;5114700;28;20039;-78
2022/05/02 03:40:53;;;;;;;41.08;19.90;;;4.30;99.90;;;;;;5114774;28;20024;-78
2022/05/02 03:43:19;;;;;;;42.67;18.17;;;4.40;99.90;;;;;;5114660;28;20024;-78
2022/05/02 03:45:44;;;;;;;35.97;18.83;;;4.50;99.90;;;;;;5114615;28;20028;-78
2022/05/02 03:48:10;;;;;;;33.90;18.15;;;4.60;99.90;;;;;;5114431;28;20031;-78
2022/05/02 03:50:35;;;;;;;36.20;18.20;;;4.70;99.90;;;;;;5114546;28;20165;-78
2022/05/02 03:53:01;;;;;;;34.45;17.38;;;4.80;99.90;;;;;;5114458;28;20023;-78
2022/05/02 03:55:27;;;;;;;38.05;18.23;;;4.90;99.90;;;;;;5115707;28;20069;-78
2022/05/02 03:57:52;;;;;;;36.90;17.85;;;5.00;99.90;;;;;;5115653;28;20427;-78
2022/05/02 04:00:18;;;;;;;35.65;18.00;;;5.10;99.90;;;;;;5114350;28;20516;-78
2022/05/02 04:02:44;;;;;;;30.00;16.13;;;5.20;99.90;;;;;;5115573;28;20031;-78
2022/05/02 04:05:10;;;;;;;39.88;16.90;;;5.40;99.90;;;;;;5114217;28;20445;-78
2022/05/02 04:07:36;;;;;;;30.80;15.43;;;5.50;99.90;;;;;;5114062;28;20059;-78
2022/05/02 04:10:03;;;;;;;30.20;14.65;;;5.60;99.90;;;;;;5115420;28;20044;-78
2022/05/02 04:12:37;;;;;;;27.23;14.90;;;5.80;99.90;;;;;;5113489;28;20077;-78
2022/05/02 04:15:07;;;;;;;27.58;15.57;;;5.90;99.90;;;;;;5115318;28;20015;-78
2022/05/02 04:17:33;;;;;;;29.83;15.48;;;6.10;99.90;;;;;;5113980;28;20019;-78
2022/05/02 04:19:58;;;;;;;31.33;16.17;;;6.30;99.90;;;;;;5113894;28;20114;-78
2022/05/02 04:22:24;;;;;;;28.25;15.98;;;6.50;99.90;;;;;;5114063;28;20035;-78
2022/05/02 04:24:50;;;;;;;26.25;14.95;;;6.70;99.90;;;;;;5115067;28;20019;-78
2022/05/02 04:27:15;;;;;;;23.25;14.30;;;6.90;99.90;;;;;;5113539;28;20043;-78
2022/05/02 04:29:41;;;;;;;25.00;14.77;;;7.10;99.90;;;;;;5113745;28;20028;-78
2022/05/02 04:32:07;;;;;;;27.85;14.50;;;7.30;99.90;;;;;;5113697;28;20094;-78
2022/05/02 04:34:32;;;;;;;30.33;16.02;;;7.50;99.90;;;;;;5115143;28;20024;-78
2022/05/02 04:36:58;;;;;;;36.25;17.38;;;7.80;99.90;;;;;;5114807;28;20032;-78
2022/05/02 04:39:24;;;;;;;36.90;19.52;;;8.90;99.90;;;;;;5113509;28;20137;-78
2022/05/02 04:41:49;;;;;;;31.02;17.77;;;10.50;99.90;;;;;;5114789;28;20024;-78
2022/05/02 04:44:15;;;;;;;38.92;19.73;;;12.40;99.20;;;;;;5113545;28;20122;-78
2022/05/02 04:46:41;;;;;;;36.03;18.95;;;14.20;95.90;;;;;;5113436;28;20023;-78
2022/05/02 04:49:06;;;;;;;33.03;16.55;;;15.90;91.80;;;;;;5113326;28;20030;-78
2022/05/02 04:51:32;;;;;;;28.02;15.30;;;17.40;85.00;;;;;;5114757;28;20523;-78
2022/05/02 04:53:58;;;;;;;21.33;12.68;;;18.50;71.80;;;;;;5114737;28;20067;-78
2022/05/02 04:56:24;;;;;;;26.25;13.88;;;19.50;67.90;;;;;;5112964;28;20489;-78
2022/05/02 04:58:50;;;;;;;28.10;14.82;;;20.40;66.00;;;;;;5114244;28;20020;-78
2022/05/02 05:01:15;;;;;;;26.95;13.02;;;21.10;62.60;;;;;;5112916;28;20026;-78
2022/05/02 05:03:41;;;;;;;25.10;13.48;;;21.80;61.40;;;;;;5112900;28;20131;-78
2022/05/02 05:06:07;;;;;;;20.67;12.00;;;22.20;57.50;;;;;;5114179;27;20024;-78
2022/05/02 05:08:33;;;;;;;18.05;10.73;;;22.00;56.40;;;;;;5114032;28;20024;-78
2022/05/02 05:11:19;;;;;;;15.27;9.90;;;22.40;56.50;;;;;;5112808;28;20111;-78
2022/05/02 05:17:09;;;;;;;20.30;13.32;;;22.20;56.10;;;;;;5113997;28;20030;-78
2022/05/02 05:19:44;;;;;;;20.70;12.95;;;20.60;53.80;;;;;;5112809;28;20027;-79
2022/05/02 05:22:55;;;;;;;27.77;14.20;;;20.40;56.50;;;;;;5112612;28;20092;-79
2022/05/02 05:25:42;;;;;;;25.17;12.30;;;19.40;57.80;;;;;;5051455;28;20512;-79
2022/05/02 05:28:45;;;;;;;22.02;13.30;;;19.00;58.90;;;;;;5034358;28;20053;-79
2022/05/02 05:31:20;;;;;;;23.90;13.75;;;18.30;60.10;;;;;;5108770;28;20036;-79
2022/05/02 05:34:03;;;;;;;16.77;11.13;;;17.70;60.40;;;;;;5114199;28;20477;-79
2022/05/02 05:37:06;;;;;;;15.50;10.30;;;17.40;61.80;;;;;;5112718;28;20485;-79
2022/05/02 05:39:40;;;;;;;18.17;10.15;;;17.00;62.20;;;;;;5112629;28;20055;-79
2022/05/02 05:42:21;;;;;;;30.33;14.02;;;16.70;63.10;;;;;;5112557;28;20105;-79
2022/05/02 05:45:09;;;;;;;43.42;15.55;;;16.50;63.00;;;;;;5112740;28;20110;-79
2022/05/02 05:47:53;;;;;;;239.23;60.50;;;16.30;64.30;;;;;;5112544;28;20496;-79
2022/05/02 05:50:24;;;;;;;212.23;56.20;;;16.20;62.30;;;;;;5112671;28;20030;-79
2022/05/02 05:53:06;;;;;;;197.95;47.72;;;16.10;63.60;;;;;;5113908;28;20043;-79
2022/05/02 05:56:00;;;;;;;114.53;30.77;;;16.00;61.60;;;;;;5112529;28;20020;-79
2022/05/02 05:58:46;;;;;;;168.85;43.63;;;16.00;62.60;;;;;;5112631;28;20035;-79
2022/05/02 06:01:14;;;;;;;160.70;47.00;;;16.00;62.10;;;;;;5112552;28;20032;-79
2022/05/02 06:04:04;;;;;;;52.88;17.52;;;15.90;61.90;;;;;;5114095;28;20051;-79
2022/05/02 06:06:30;;;;;;;20.83;9.90;;;15.90;64.20;;;;;;5100436;28;20122;-79
2022/05/02 06:09:00;;;;;;;23.35;9.60;;;15.70;66.50;;;;;;5112363;28;20390;-79
2022/05/02 06:11:29;;;;;;;22.33;8.30;;;15.50;67.90;;;;;;5113604;28;20024;-79
2022/05/02 09:36:29;;;;;;;21.85;3.03;;;17.10;50.40;;;;;;5092055;27;20421;-89
2022/05/02 09:39:15;;;;;;;26.00;3.67;;;17.10;50.50;;;;;;5091869;28;20378;-90
2022/05/02 09:41:51;;;;;;;3.58;2.50;;;17.30;50.80;;;;;;5091255;28;20028;-84
2022/05/02 09:51:29;;;;;;;4.63;2.55;;;17.60;51.40;;;;;;5029550;28;20225;-85
2022/05/02 09:57:21;;;;;;;4.43;3.33;;;17.80;50.80;;;;;;5091161;28;20043;-85
2022/05/02 10:01:06;;;;;;;7.55;4.18;;;17.80;51.30;;;;;;5089489;28;20090;-84
2022/05/02 10:02:44;;;;;;;5.20;2.83;;;17.90;51.50;;;;;;5090763;28;20386;-86
2022/05/02 10:05:15;;;;;;;5.32;2.28;;;18.10;51.40;;;;;;5089639;28;20032;-86
2022/05/02 10:07:52;;;;;;;3.15;2.10;;;18.10;50.30;;;;;;5090991;28;20475;-86
2022/05/02 10:10:39;;;;;;;4.30;2.30;;;18.20;50.00;;;;;;5090986;28;20510;-86
2022/05/02 10:13:29;;;;;;;3.63;2.10;;;18.30;49.90;;;;;;5089506;28;20107;-88
2022/05/02 10:16:29;;;;;;;3.33;2.20;;;18.40;50.40;;;;;;5089613;28;20032;-87
2022/05/02 10:18:54;;;;;;;4.57;2.80;;;18.50;50.70;;;;;;5090817;28;20020;-87
2022/05/02 10:24:48;;;;;;;2.55;2.35;;;18.60;49.00;;;;;;5070874;28;20928;-83
2022/05/02 10:27:36;;;;;;;2.78;2.20;;;18.50;49.70;;;;;;5069735;28;20033;-85
2022/05/02 10:30:01;;;;;;;4.47;2.67;;;18.50;48.60;;;;;;5070645;28;20099;-83
2022/05/02 10:32:56;;;;;;;2.88;2.65;;;18.40;49.50;;;;;;5070669;28;20052;-83
2022/05/02 10:35:24;;;;;;;2.80;2.38;;;18.40;49.80;;;;;;5069543;28;20151;-83
2022/05/02 10:37:59;;;;;;;5.15;2.40;;;18.50;50.60;;;;;;5070628;28;20025;-83
2022/05/02 10:40:44;;;;;;;3.47;2.30;;;18.50;50.30;;;;;;5070678;28;20012;-84
2022/05/02 10:43:11;;;;;;;2.58;1.98;;;18.60;50.30;;;;;;5070744;28;20029;-84
2022/05/02 10:45:40;;;;;;;3.78;2.30;;;18.60;50.10;;;;;;5069526;28;20032;-85
2022/05/02 10:48:24;;;;;;;3.97;2.60;;;18.60;50.40;;;;;;5069323;28;20021;-84
2022/05/02 10:51:16;;;;;;;19.42;2.85;;;18.70;49.10;;;;;;5068977;28;20027;-84
2022/05/02 10:53:56;;;;;;;2.88;2.40;;;18.70;49.50;;;;;;5069321;28;20044;-84
2022/05/02 10:56:39;;;;;;;3.63;2.55;;;18.70;49.30;;;;;;5070279;28;20150;-84
2022/05/02 10:59:05;;;;;;;3.00;2.70;;;18.60;49.50;;;;;;5070266;28;20103;-84
2022/05/02 11:02:09;;;;;;;9.52;8.25;;;18.70;50.10;;;;;;5068564;28;20078;-83
2022/05/02 11:04:46;;;;;;;3.65;2.47;;;18.80;49.40;;;;;;5069992;28;20032;-84
2022/05/02 11:07:37;;;;;;;2.83;2.42;;;18.80;48.70;;;;;;5068814;28;20052;-83
2022/05/02 11:10:07;;;;;;;4.75;2.60;;;18.80;48.80;;;;;;5068760;28;20113;-83
2022/05/02 11:13:15;;;;;;;3.03;2.45;;;18.80;49.00;;;;;;5069911;28;20483;-83
2022/05/02 11:16:07;;;;;;;3.45;2.20;;;18.80;48.80;;;;;;5067442;28;20029;-83
2022/05/02 11:22:13;;;;;;;3.05;2.10;;;19.00;48.60;;;;;;5068883;28;20376;-83
2022/05/02 11:25:19;;;;;;;3.53;2.08;;;19.10;48.40;;;;;;5067030;28;20044;-83
2022/05/02 11:28:26;;;;;;;3.80;1.80;;;19.20;49.00;;;;;;5056601;28;20032;-83
2022/05/02 11:31:25;;;;;;;3.08;2.08;;;19.20;48.50;;;;;;5068658;28;20021;-83
2022/05/02 11:33:56;;;;;;;5.82;2.10;;;19.20;47.80;;;;;;5059054;28;20119;-83
2022/05/02 11:36:28;;;;;;;2.58;2.10;;;19.20;48.30;;;;;;5053488;28;20017;-83
2022/05/02 11:39:08;;;;;;;3.80;2.17;;;19.20;48.40;;;;;;5054761;28;20533;-83
2022/05/02 11:41:42;;;;;;;3.60;2.22;;;19.30;47.80;;;;;;5054155;28;20040;-84
2022/05/02 11:44:11;;;;;;;5.13;2.08;;;19.40;47.90;;;;;;5055396;28;20387;-83
2022/05/02 11:47:20;;;;;;;2.10;1.90;;;19.40;48.10;;;;;;5054349;28;20053;-83
2022/05/02 11:50:01;;;;;;;6.22;2.10;;;19.50;48.00;;;;;;5034960;28;20038;-83
2022/05/02 11:52:38;;;;;;;3.05;2.10;;;19.80;47.70;;;;;;5055479;28;20025;-83
2022/05/02 11:55:07;;;;;;;5.93;2.40;;;20.80;47.20;;;;;;5054378;28;20047;-84
2022/05/02 11:57:42;;;;;;;2.53;2.10;;;21.90;46.40;;;;;;5053961;28;20021;-84
2022/05/02 12:00:09;;;;;;;2.85;1.98;;;23.10;43.60;;;;;;5055303;28;20051;-84
2022/05/02 12:02:42;;;;;;;2.42;2.22;;;24.10;43.40;;;;;;5055653;28;20021;-84
2022/05/02 12:05:38;;;;;;;3.97;1.90;;;24.70;40.40;;;;;;5055852;28;20021;-84
2022/05/02 12:08:06;;;;;;;6.50;2.00;;;25.30;40.10;;;;;;5055549;28;20023;-85
2022/05/02 12:10:34;;;;;;;3.63;1.95;;;26.10;41.50;;;;;;5054373;28;20112;-85
2022/05/02 12:13:01;;;;;;;3.22;2.00;;;26.70;40.90;;;;;;5055505;28;20032;-82
2022/05/02 12:15:28;;;;;;;2.58;1.92;;;27.10;39.50;;;;;;5055487;28;20052;-82
2022/05/02 12:18:06;;;;;;;3.60;2.17;;;27.20;39.40;;;;;;5055451;28;20032;-82
2022/05/02 12:20:41;;;;;;;2.58;2.20;;;27.30;38.60;;;;;;5053973;28;20124;-82
2022/05/02 12:23:21;;;;;;;3.83;2.20;;;27.20;37.80;;;;;;5053842;28;20049;-82
2022/05/02 12:25:54;;;;;;;2.65;2.10;;;27.30;37.60;;;;;;5055412;28;20036;-82
2022/05/02 12:28:40;;;;;;;6.80;2.20;;;27.10;36.80;;;;;;5053914;28;20025;-81
2022/05/02 12:31:07;;;;;;;5.50;1.80;;;27.20;36.60;;;;;;5055283;28;20021;-85
2022/05/02 12:33:40;;;;;;;4.72;2.35;;;26.80;38.10;;;;;;5055283;28;20028;-83
2022/05/02 12:36:15;;;;;;;5.13;2.13;;;27.00;38.70;;;;;;5053904;28;20411;-83
2022/05/02 17:22:59;;;;;;;4.40;3.10;;;13.40;53.80;;;;;;5071864;28;20489;-86
2022/05/02 17:25:26;;;;;;;7.00;3.25;;;12.90;54.30;;;;;;5070122;28;20120;-87
2022/05/02 17:27:58;;;;;;;5.43;2.65;;;12.90;55.20;;;;;;5070842;28;20021;-86
2022/05/02 17:30:24;;;;;;;3.13;2.72;;;12.80;54.90;;;;;;5071123;28;20024;-85
2022/05/02 17:32:54;;;;;;;10.85;5.20;;;12.70;54.90;;;;;;5069699;28;20033;-86
2022/05/02 17:35:26;;;;;;;8.25;5.22;;;12.60;55.20;;;;;;5069921;28;20040;-87
2022/05/02 17:38:04;;;;;;;14.15;6.22;;;12.50;55.70;;;;;;5069872;28;20510;-87
2022/05/02 17:40:36;;;;;;;7.65;5.30;;;12.40;56.10;;;;;;5069612;28;20111;-86
2022/05/02 17:43:20;;;;;;;8.23;4.30;;;12.30;56.70;;;;;;5069854;28;20028;-87
2022/05/02 17:45:49;;;;;;;4.88;3.40;;;12.30;56.80;;;;;;5069856;28;20020;-86
2022/05/02 17:48:15;;;;;;;7.65;3.40;;;12.20;56.80;;;;;;5069527;28;20052;-88
2022/05/02 17:50:43;;;;;;;5.95;3.40;;;12.10;57.20;;;;;;5071035;28;20533;-88
2022/05/02 17:53:14;;;;;;;5.60;3.10;;;12.00;57.10;;;;;;5069754;28;20364;-88
2022/05/02 17:55:45;;;;;;;7.18;4.10;;;12.00;58.30;;;;;;5069964;28;20021;-88
2022/05/02 17:58:13;;;;;;;11.73;7.25;;;11.90;57.80;;;;;;5069505;28;20120;-89
2022/05/02 18:00:41;;;;;;;44.95;23.27;;;11.80;58.00;;;;;;5069428;28;20540;-88
2022/05/02 18:03:12;;;;;;;38.95;25.70;;;11.80;58.10;;;;;;5069702;28;20039;-86
2022/05/02 18:05:42;;;;;;;27.45;16.70;;;11.70;58.30;;;;;;5070800;28;20021;-88
2022/05/02 18:08:12;;;;;;;55.28;24.40;;;11.70;58.60;;;;;;5070691;28;20024;-88
2022/05/02 18:10:38;;;;;;;17.77;12.23;;;11.60;58.90;;;;;;5069217;28;20054;-89
2022/05/02 18:13:10;;;;;;;16.50;7.50;;;11.50;59.20;;;;;;5069390;28;20174;-87
2022/05/02 18:15:41;;;;;;;10.75;6.18;;;11.50;59.90;;;;;;5068977;28;20368;-87
2022/05/02 18:18:10;;;;;;;;;;;11.40;60.10;;;;;;5069584;28;20025;-87
2022/05/02 18:20:38;;;;;;;12.20;4.60;;;11.40;59.80;;;;;;5069596;28;20320;-86
2022/05/02 18:23:09;;;;;;;10.02;5.65;;;11.30;60.00;;;;;;5068547;28;20037;-88
2022/05/02 18:25:40;;;;;;;27.20;16.38;;;11.30;60.20;;;;;;5068839;28;20024;-87
2022/05/02 18:28:08;;;;;;;13.52;6.10;;;11.20;60.30;;;;;;5069056;28;20048;-88
2022/05/02 18:30:43;;;;;;;18.70;4.70;;;11.30;60.40;;;;;;5070184;28;20054;-88
2022/05/02 18:33:17;;;;;;;11.60;6.85;;;11.50;60.30;;;;;;5062208;28;20373;-88
2022/05/02 18:35:52;;;;;;;14.05;7.18;;;11.70;60.40;;;;;;5055532;28;20035;-87
2022/05/02 18:38:21;;;;;;;12.32;5.82;;;11.80;60.00;;;;;;5055800;28;20039;-89
2022/05/02 18:40:57;;;;;;;10.57;6.93;;;12.00;59.90;;;;;;5055669;28;20494;-87
2022/05/02 18:43:32;;;;;;;10.65;5.80;;;12.10;59.40;;;;;;5055223;28;20028;-87
2022/05/02 18:54:31;;;;;;;10.60;4.80;;;11.90;59.20;;;;;;5056423;28;20048;-86
2022/05/02 18:57:14;;;;;;;7.82;5.13;;;11.80;59.30;;;;;;5056139;28;20051;-86
2022/05/02 18:59:42;;;;;;;7.57;4.85;;;11.70;59.20;;;;;;5055057;28;20021;-86
2022/05/02 19:02:10;;;;;;;10.18;5.07;;;11.70;59.10;;;;;;5054777;28;20032;-87
2022/05/02 19:04:44;;;;;;;12.48;5.13;;;11.60;59.00;;;;;;5056395;28;20028;-87
2022/05/02 19:07:15;;;;;;;10.02;5.53;;;11.50;59.50;;;;;;5054835;28;20024;-89
2022/05/02 19:09:45;;;;;;;12.43;5.60;;;11.50;59.40;;;;;;5055190;28;20112;-91
2022/05/02 19:12:14;;;;;;;13.23;6.30;;;11.50;59.20;;;;;;5056001;28;20025;-88
2022/05/02 19:14:44;;;;;;;10.63;5.65;;;11.40;59.00;;;;;;5054976;28;20124;-88
2022/05/02 19:17:11;;;;;;;12.90;5.65;;;11.40;59.20;;;;;;5054881;28;20025;-85
2022/05/02 19:19:37;;;;;;;40.00;29.70;;;11.30;59.30;;;;;;5054697;28;20032;-86
2022/05/02 19:22:05;;;;;;;24.15;14.40;;;11.30;59.60;;;;;;5053988;28;20052;-86
2022/05/02 19:25:07;;;;;;;21.15;11.23;;;11.20;60.40;;;;;;5054505;28;20396;-86
2022/05/02 19:27:33;;;;;;;21.85;11.25;;;11.10;59.80;;;;;;5051365;28;20339;-86
2022/05/02 19:30:07;;;;;;;22.83;11.55;;;11.10;60.70;;;;;;5054410;28;20027;-86
2022/05/02 19:32:49;;;;;;;22.92;12.20;;;11.00;60.40;;;;;;5054408;28;20484;-86
2022/05/02 19:41:18;;;;;;;22.73;10.65;;;10.90;61.20;;;;;;5055435;28;20134;-86
2022/05/02 19:43:45;;;;;;;21.55;10.82;;;10.90;60.20;;;;;;5053939;28;20045;-86
2022/05/02 19:46:14;;;;;;;18.50;9.35;;;10.80;60.20;;;;;;5054661;28;20021;-86
2022/05/02 19:48:48;;;;;;;20.45;9.25;;;10.80;60.60;;;;;;5053937;28;20036;-86
2022/05/02 19:51:20;;;;;;;18.88;9.20;;;10.70;60.90;;;;;;5053851;28;20028;-85
2022/05/02 19:53:47;;;;;;;18.10;8.07;;;10.60;61.20;;;;;;5053867;28;20031;-85
2022/05/02 19:56:13;;;;;;;12.23;6.20;;;10.60;61.90;;;;;;5053677;28;20032;-86
2022/05/02 19:58:40;;;;;;;9.35;5.82;;;10.50;61.60;;;;;;5054986;28;20025;-85
2022/05/02 20:01:06;;;;;;;9.52;5.15;;;10.40;61.60;;;;;;5053563;28;20032;-86
2022/05/02 20:03:36;;;;;;;10.18;4.78;;;10.40;61.60;;;;;;5055054;28;20028;-85
2022/05/02 20:06:05;;;;;;;9.10;4.85;;;10.40;61.80;;;;;;5053933;28;20017;-86
2022/05/02 20:08:31;;;;;;;10.52;4.85;;;10.40;61.90;;;;;;5054819;28;20032;-86
2022/05/02 20:10:57;;;;;;;10.98;5.47;;;10.30;62.00;;;;;;5054827;28;20377;-85
2022/05/02 20:13:23;;;;;;;7.15;4.43;;;10.20;62.30;;;;;;5054756;28;20027;-86
2022/05/02 20:15:49;;;;;;;7.28;4.30;;;10.20;62.80;;;;;;5053644;28;20075;-86
2022/05/02 20:18:17;;;;;;;9.70;5.10;;;10.10;62.60;;;;;;5053000;28;20024;-86
2022/05/02 20:20:43;;;;;;;7.60;4.32;;;10.10;63.10;;;;;;5051812;28;20025;-85
2022/05/02 20:23:09;;;;;;;8.43;4.10;;;10.00;63.30;;;;;;5053708;28;20052;-86
2022/05/02 20:25:35;;;;;;;8.13;4.55;;;9.90;63.70;;;;;;5052361;28;20021;-85
2022/05/02 20:28:02;;;;;;;7.70;4.20;;;9.90;64.80;;;;;;5052573;28;20028;-85
2022/05/02 20:30:29;;;;;;;6.10;3.63;;;9.80;64.80;;;;;;5053689;28;20555;-85
2022/05/02 20:38:25;;;;;;;4.80;3.17;;;9.80;64.60;;;;;;5052391;28;20028;-86
2022/05/02 20:40:52;;;;;;;7.43;3.67;;;9.90;65.10;;;;;;5051794;28;20029;-85
2022/05/02 20:43:42;;;;;;;3.58;3.22;;;9.80;65.20;;;;;;5052591;28;20047;-85
2022/05/02 20:46:10;;;;;;;5.68;3.15;;;9.80;64.60;;;;;;5047847;28;20560;-85
2022/05/02 20:48:37;;;;;;;4.80;3.30;;;9.80;64.70;;;;;;5051781;28;20036;-85
2022/05/02 20:51:07;;;;;;;3.40;3.10;;;9.70;64.80;;;;;;5051998;28;20411;-86
2022/05/02 20:53:37;;;;;;;4.38;3.20;;;9.70;65.10;;;;;;5050132;28;20428;-85
2022/05/02 20:56:05;;;;;;;5.60;3.40;;;9.70;65.30;;;;;;5051478;28;20475;-85
2022/05/02 20:58:31;;;;;;;5.53;3.40;;;9.60;65.60;;;;;;5052192;28;20032;-85
2022/05/02 21:00:57;;;;;;;4.97;3.50;;;9.50;65.80;;;;;;5051893;28;20075;-85
2022/05/02 21:03:25;;;;;;;7.03;3.80;;;9.50;66.00;;;;;;5051696;28;20021;-85
2022/05/02 21:05:51;;;;;;;5.03;3.22;;;9.40;66.30;;;;;;5051560;28;20021;-85
2022/05/02 21:08:22;;;;;;;5.05;3.72;;;9.40;66.60;;;;;;5052188;28;20021;-86
2022/05/02 21:10:53;;;;;;;6.28;4.20;;;9.30;66.90;;;;;;5050044;28;20025;-86
2022/05/02 21:13:45;;;;;;;5.32;3.63;;;9.30;67.20;;;;;;5052840;28;20016;-86
2022/05/02 21:16:18;;;;;;;7.55;3.90;;;9.20;67.40;;;;;;5036461;28;20056;-84
2022/05/02 21:19:02;;;;;;;4.88;3.78;;;9.10;67.50;;;;;;5053298;28;20079;-86
2022/05/02 21:22:04;;;;;;;6.75;4.03;;;9.10;67.90;;;;;;5052580;28;20037;-85
2022/05/02 21:24:54;;;;;;;6.30;4.60;;;9.00;68.10;;;;;;5043819;28;20426;-85
2022/05/02 21:27:57;;;;;;;7.55;4.70;;;9.00;68.60;;;;;;5049885;28;20021;-86
2022/05/02 21:30:29;;;;;;;6.68;4.85;;;8.90;68.60;;;;;;5051338;28;20376;-86
2022/05/02 21:33:08;;;;;;;9.40;5.43;;;8.80;68.90;;;;;;5052212;28;20047;-86
2022/05/02 21:35:34;;;;;;;8.52;5.40;;;8.80;69.30;;;;;;5051241;28;20494;-85
2022/05/02 21:38:04;;;;;;;10.38;5.10;;;8.70;69.40;;;;;;5051860;28;20029;-85
2022/05/02 21:40:34;;;;;;;9.30;5.53;;;8.70;69.60;;;;;;5051503;28;20562;-85
2022/05/02 21:43:06;;;;;;;8.43;5.35;;;8.60;69.70;;;;;;5051338;28;20029;-86
2022/05/02 21:45:35;;;;;;;7.63;4.80;;;8.60;70.10;;;;;;5051191;28;21028;-85
2022/05/02 21:48:00;;;;;;;8.48;5.20;;;8.50;70.10;;;;;;5051883;28;20017;-85
2022/05/02 21:50:26;;;;;;;10.25;5.75;;;8.50;70.50;;;;;;5051432;28;20021;-85
2022/05/02 21:52:52;;;;;;;8.55;5.95;;;8.40;70.70;;;;;;5051397;28;20032;-85
2022/05/02 21:55:18;;;;;;;8.95;5.55;;;8.40;71.00;;;;;;5051646;28;20029;-86
2022/05/02 21:57:43;;;;;;;8.40;5.85;;;8.30;71.20;;;;;;5052396;28;20026;-85
2022/05/02 22:00:12;;;;;;;8.52;5.60;;;8.30;71.60;;;;;;5051755;28;20047;-85